sensor_id;sensor_type;location;lat;lon;timestamp;P1;durP1;ratioP1;P2;durP2;ratioP2
47529;SDS011;33272;51.922;7.730;2022-07-29T00:01:47;1.73;;;1.23;;
47529;SDS011;33272;51.922;7.730;2022-07-29T00:04:14;4.47;;;1.53;;
47529;SDS011;33272;51.922;7.730;2022-07-29T00:06:41;3.17;;;1.50;;
47529;SDS011;33272;51.922;7.730;2022-07-29T00:09:08;4.17;;;1.50;;
47529;SDS011;33272;51.922;7.730;2022-07-29T00:11:36;3.23;;;1.40;;
47529;SDS011;33272;51.922;7.730;2022-07-29T00:14:03;2.43;;;1.30;;
47529;SDS011;33272;51.922;7.730;2022-07-29T00:16:32;2.90;;;1.40;;
47529;SDS011;33272;51.922;7.730;2022-07-29T00:18:59;1.70;;;1.30;;
47529;SDS011;33272;51.922;7.730;2022-07-29T00:21:26;3.50;;;1.80;;
47529;SDS011;33272;51.922;7.730;2022-07-29T00:23:53;2.57;;;1.40;;
47529;SDS011;33272;51.922;7.730;2022-07-29T00:26:20;2.30;;;1.30;;
47529;SDS011;33272;51.922;7.730;2022-07-29T00:28:47;2.87;;;1.77;;
47529;SDS011;33272;51.922;7.730;2022-07-29T00:31:14;2.30;;;1.50;;
47529;SDS011;33272;51.922;7.730;2022-07-29T00:33:43;3.87;;;1.40;;
47529;SDS011;33272;51.922;7.730;2022-07-29T00:36:10;1.63;;;1.20;;
47529;SDS011;33272;51.922;7.730;2022-07-29T00:38:36;2.07;;;1.20;;
47529;SDS011;33272;51.922;7.730;2022-07-29T00:41:03;2.60;;;1.40;;
47529;SDS011;33272;51.922;7.730;2022-07-29T00:43:30;3.87;;;1.37;;
47529;SDS011;33272;51.922;7.730;2022-07-29T00:45:57;4.03;;;1.50;;
47529;SDS011;33272;51.922;7.730;2022-07-29T00:48:24;3.17;;;1.77;;
47529;SDS011;33272;51.922;7.730;2022-07-29T00:50:52;2.07;;;1.47;;
47529;SDS011;33272;51.922;7.730;2022-07-29T00:53:20;2.40;;;1.40;;
47529;SDS011;33272;51.922;7.730;2022-07-29T00:55:48;3.33;;;1.70;;
47529;SDS011;33272;51.922;7.730;2022-07-29T00:58:15;2.73;;;1.53;;
47529;SDS011;33272;51.922;7.730;2022-07-29T01:00:42;1.93;;;1.40;;
47529;SDS011;33272;51.922;7.730;2022-07-29T01:03:09;4.13;;;1.83;;
47529;SDS011;33272;51.922;7.730;2022-07-29T01:05:37;3.33;;;1.40;;
47529;SDS011;33272;51.922;7.730;2022-07-29T01:08:07;2.17;;;1.37;;
47529;SDS011;33272;51.922;7.730;2022-07-29T01:10:35;3.20;;;1.53;;
47529;SDS011;33272;51.922;7.730;2022-07-29T01:13:04;2.10;;;1.60;;
47529;SDS011;33272;51.922;7.730;2022-07-29T01:15:31;3.17;;;1.50;;
47529;SDS011;33272;51.922;7.730;2022-07-29T01:18:04;1.90;;;1.40;;
47529;SDS011;33272;51.922;7.730;2022-07-29T01:20:42;3.53;;;1.60;;
47529;SDS011;33272;51.922;7.730;2022-07-29T01:23:51;2.27;;;1.33;;
47529;SDS011;33272;51.922;7.730;2022-07-29T01:26:35;3.60;;;1.77;;
47529;SDS011;33272;51.922;7.730;2022-07-29T01:29:17;4.13;;;1.53;;
47529;SDS011;33272;51.922;7.730;2022-07-29T01:31:53;3.77;;;1.60;;
47529;SDS011;33272;51.922;7.730;2022-07-29T01:34:25;3.37;;;1.60;;
47529;SDS011;33272;51.922;7.730;2022-07-29T01:37:03;4.80;;;2.40;;
47529;SDS011;33272;51.922;7.730;2022-07-29T01:39:38;5.00;;;1.80;;
47529;SDS011;33272;51.922;7.730;2022-07-29T01:42:10;3.07;;;1.60;;
47529;SDS011;33272;51.922;7.730;2022-07-29T01:44:50;2.17;;;1.53;;
47529;SDS011;33272;51.922;7.730;2022-07-29T01:47:23;2.73;;;1.63;;
47529;SDS011;33272;51.922;7.730;2022-07-29T01:49:58;2.00;;;1.53;;
47529;SDS011;33272;51.922;7.730;2022-07-29T01:52:29;2.43;;;1.50;;
47529;SDS011;33272;51.922;7.730;2022-07-29T01:55:02;2.93;;;1.67;;
47529;SDS011;33272;51.922;7.730;2022-07-29T01:57:36;4.43;;;1.60;;
47529;SDS011;33272;51.922;7.730;2022-07-29T02:00:07;3.00;;;1.37;;
47529;SDS011;33272;51.922;7.730;2022-07-29T02:02:36;2.33;;;1.40;;
47529;SDS011;33272;51.922;7.730;2022-07-29T02:05:07;2.57;;;1.30;;
47529;SDS011;33272;51.922;7.730;2022-07-29T02:07:39;5.93;;;1.60;;
47529;SDS011;33272;51.922;7.730;2022-07-29T02:10:09;5.60;;;1.67;;
47529;SDS011;33272;51.922;7.730;2022-07-29T02:12:39;3.50;;;2.00;;
47529;SDS011;33272;51.922;7.730;2022-07-29T02:15:10;3.27;;;1.90;;
47529;SDS011;33272;51.922;7.730;2022-07-29T02:17:39;4.30;;;2.17;;
47529;SDS011;33272;51.922;7.730;2022-07-29T02:20:12;4.97;;;1.53;;
47529;SDS011;33272;51.922;7.730;2022-07-29T02:22:40;3.30;;;1.60;;
47529;SDS011;33272;51.922;7.730;2022-07-29T02:25:10;4.53;;;1.70;;
47529;SDS011;33272;51.922;7.730;2022-07-29T02:27:38;3.33;;;1.40;;
47529;SDS011;33272;51.922;7.730;2022-07-29T02:30:09;4.90;;;1.70;;
47529;SDS011;33272;51.922;7.730;2022-07-29T02:32:38;3.97;;;1.70;;
47529;SDS011;33272;51.922;7.730;2022-07-29T02:35:08;2.23;;;1.57;;
47529;SDS011;33272;51.922;7.730;2022-07-29T02:37:38;4.43;;;1.63;;
47529;SDS011;33272;51.922;7.730;2022-07-29T02:40:08;3.50;;;1.50;;
47529;SDS011;33272;51.922;7.730;2022-07-29T02:42:38;2.87;;;1.33;;
47529;SDS011;33272;51.922;7.730;2022-07-29T02:45:07;2.80;;;1.50;;
47529;SDS011;33272;51.922;7.730;2022-07-29T02:47:39;2.97;;;1.43;;
47529;SDS011;33272;51.922;7.730;2022-07-29T02:50:11;7.57;;;1.60;;
47529;SDS011;33272;51.922;7.730;2022-07-29T02:52:43;1.77;;;1.50;;
47529;SDS011;33272;51.922;7.730;2022-07-29T02:55:19;3.17;;;1.40;;
47529;SDS011;33272;51.922;7.730;2022-07-29T02:57:53;3.17;;;1.70;;
47529;SDS011;33272;51.922;7.730;2022-07-29T03:00:27;2.63;;;1.70;;
47529;SDS011;33272;51.922;7.730;2022-07-29T03:03:00;4.60;;;1.57;;
47529;SDS011;33272;51.922;7.730;2022-07-29T03:05:33;4.40;;;1.50;;
47529;SDS011;33272;51.922;7.730;2022-07-29T03:08:01;3.73;;;1.73;;
47529;SDS011;33272;51.922;7.730;2022-07-29T03:10:31;3.33;;;1.50;;
47529;SDS011;33272;51.922;7.730;2022-07-29T03:12:59;2.83;;;1.60;;
47529;SDS011;33272;51.922;7.730;2022-07-29T03:15:28;4.03;;;1.73;;
47529;SDS011;33272;51.922;7.730;2022-07-29T03:17:57;2.93;;;1.67;;
47529;SDS011;33272;51.922;7.730;2022-07-29T03:20:25;3.33;;;2.17;;
47529;SDS011;33272;51.922;7.730;2022-07-29T03:22:53;3.87;;;1.90;;
47529;SDS011;33272;51.922;7.730;2022-07-29T03:25:20;2.10;;;1.40;;
47529;SDS011;33272;51.922;7.730;2022-07-29T03:27:48;3.10;;;1.90;;
47529;SDS011;33272;51.922;7.730;2022-07-29T03:30:15;3.03;;;1.70;;
47529;SDS011;33272;51.922;7.730;2022-07-29T03:32:44;3.60;;;1.70;;
47529;SDS011;33272;51.922;7.730;2022-07-29T03:35:17;4.40;;;1.60;;
47529;SDS011;33272;51.922;7.730;2022-07-29T03:37:44;2.50;;;1.40;;
47529;SDS011;33272;51.922;7.730;2022-07-29T03:40:14;4.93;;;1.70;;
47529;SDS011;33272;51.922;7.730;2022-07-29T03:42:45;3.27;;;1.60;;
47529;SDS011;33272;51.922;7.730;2022-07-29T03:45:17;5.43;;;1.80;;
47529;SDS011;33272;51.922;7.730;2022-07-29T03:47:47;3.13;;;1.70;;
47529;SDS011;33272;51.922;7.730;2022-07-29T03:50:19;2.70;;;1.50;;
47529;SDS011;33272;51.922;7.730;2022-07-29T03:52:47;3.13;;;2.00;;
47529;SDS011;33272;51.922;7.730;2022-07-29T03:55:15;4.53;;;1.70;;
47529;SDS011;33272;51.922;7.730;2022-07-29T03:57:42;2.10;;;1.50;;
47529;SDS011;33272;51.922;7.730;2022-07-29T04:00:12;4.63;;;1.60;;
47529;SDS011;33272;51.922;7.730;2022-07-29T04:02:42;2.87;;;1.70;;
47529;SDS011;33272;51.922;7.730;2022-07-29T04:05:14;3.73;;;1.60;;
47529;SDS011;33272;51.922;7.730;2022-07-29T04:07:43;4.97;;;1.80;;
47529;SDS011;33272;51.922;7.730;2022-07-29T04:10:10;4.13;;;1.60;;
47529;SDS011;33272;51.922;7.730;2022-07-29T04:12:37;4.10;;;1.87;;
47529;SDS011;33272;51.922;7.730;2022-07-29T04:15:05;3.37;;;1.60;;
47529;SDS011;33272;51.922;7.730;2022-07-29T04:17:33;4.30;;;1.80;;
47529;SDS011;33272;51.922;7.730;2022-07-29T04:20:00;4.60;;;1.87;;
47529;SDS011;33272;51.922;7.730;2022-07-29T04:22:29;4.13;;;1.80;;
47529;SDS011;33272;51.922;7.730;2022-07-29T04:24:56;5.57;;;1.67;;
47529;SDS011;33272;51.922;7.730;2022-07-29T04:27:23;5.53;;;1.60;;
47529;SDS011;33272;51.922;7.730;2022-07-29T04:29:50;3.10;;;1.80;;
47529;SDS011;33272;51.922;7.730;2022-07-29T04:32:17;5.37;;;1.80;;
47529;SDS011;33272;51.922;7.730;2022-07-29T04:34:44;3.20;;;1.63;;
47529;SDS011;33272;51.922;7.730;2022-07-29T04:37:11;3.77;;;1.97;;
47529;SDS011;33272;51.922;7.730;2022-07-29T04:39:40;2.83;;;1.60;;
47529;SDS011;33272;51.922;7.730;2022-07-29T04:42:07;4.03;;;1.47;;
47529;SDS011;33272;51.922;7.730;2022-07-29T04:44:34;3.87;;;1.87;;
47529;SDS011;33272;51.922;7.730;2022-07-29T04:47:01;2.07;;;1.37;;
47529;SDS011;33272;51.922;7.730;2022-07-29T04:49:28;5.97;;;1.97;;
47529;SDS011;33272;51.922;7.730;2022-07-29T04:51:55;4.50;;;1.70;;
47529;SDS011;33272;51.922;7.730;2022-07-29T04:54:23;4.07;;;1.60;;
47529;SDS011;33272;51.922;7.730;2022-07-29T04:56:51;2.63;;;1.57;;
47529;SDS011;33272;51.922;7.730;2022-07-29T04:59:18;2.90;;;1.60;;
47529;SDS011;33272;51.922;7.730;2022-07-29T05:01:45;4.70;;;1.50;;
47529;SDS011;33272;51.922;7.730;2022-07-29T05:04:12;4.27;;;1.77;;
47529;SDS011;33272;51.922;7.730;2022-07-29T05:06:39;2.00;;;1.47;;
47529;SDS011;33272;51.922;7.730;2022-07-29T05:09:07;3.63;;;1.80;;
47529;SDS011;33272;51.922;7.730;2022-07-29T05:11:34;5.97;;;1.93;;
47529;SDS011;33272;51.922;7.730;2022-07-29T05:14:02;2.27;;;1.50;;
47529;SDS011;33272;51.922;7.730;2022-07-29T05:16:29;2.90;;;1.50;;
47529;SDS011;33272;51.922;7.730;2022-07-29T05:18:56;4.63;;;1.53;;
47529;SDS011;33272;51.922;7.730;2022-07-29T05:21:23;4.17;;;1.50;;
47529;SDS011;33272;51.922;7.730;2022-07-29T05:23:50;3.10;;;1.47;;
47529;SDS011;33272;51.922;7.730;2022-07-29T05:26:18;4.03;;;1.73;;
47529;SDS011;33272;51.922;7.730;2022-07-29T05:28:45;3.73;;;1.97;;
47529;SDS011;33272;51.922;7.730;2022-07-29T05:31:13;4.23;;;1.50;;
47529;SDS011;33272;51.922;7.730;2022-07-29T05:33:40;4.40;;;1.50;;
47529;SDS011;33272;51.922;7.730;2022-07-29T05:36:08;3.13;;;1.93;;
47529;SDS011;33272;51.922;7.730;2022-07-29T05:38:35;3.53;;;1.80;;
47529;SDS011;33272;51.922;7.730;2022-07-29T05:41:02;2.77;;;2.00;;
47529;SDS011;33272;51.922;7.730;2022-07-29T05:43:30;4.00;;;1.70;;
47529;SDS011;33272;51.922;7.730;2022-07-29T05:45:57;2.60;;;1.67;;
47529;SDS011;33272;51.922;7.730;2022-07-29T05:48:26;2.17;;;1.30;;
47529;SDS011;33272;51.922;7.730;2022-07-29T05:50:53;2.83;;;1.57;;
47529;SDS011;33272;51.922;7.730;2022-07-29T05:53:20;3.30;;;1.30;;
47529;SDS011;33272;51.922;7.730;2022-07-29T05:55:48;2.00;;;1.30;;
47529;SDS011;33272;51.922;7.730;2022-07-29T05:58:15;5.50;;;2.00;;
47529;SDS011;33272;51.922;7.730;2022-07-29T06:00:42;3.97;;;1.47;;
47529;SDS011;33272;51.922;7.730;2022-07-29T06:03:09;3.93;;;1.80;;
47529;SDS011;33272;51.922;7.730;2022-07-29T06:05:38;3.37;;;1.50;;
47529;SDS011;33272;51.922;7.730;2022-07-29T06:08:05;2.13;;;1.40;;
47529;SDS011;33272;51.922;7.730;2022-07-29T06:10:32;3.97;;;1.40;;
47529;SDS011;33272;51.922;7.730;2022-07-29T06:13:01;4.43;;;1.80;;
47529;SDS011;33272;51.922;7.730;2022-07-29T06:15:28;2.27;;;1.70;;
47529;SDS011;33272;51.922;7.730;2022-07-29T06:17:55;3.77;;;1.97;;
47529;SDS011;33272;51.922;7.730;2022-07-29T06:20:22;3.40;;;1.60;;
47529;SDS011;33272;51.922;7.730;2022-07-29T06:22:50;2.67;;;1.63;;
47529;SDS011;33272;51.922;7.730;2022-07-29T06:25:18;4.37;;;1.50;;
47529;SDS011;33272;51.922;7.730;2022-07-29T06:27:46;3.10;;;1.67;;
47529;SDS011;33272;51.922;7.730;2022-07-29T06:30:13;4.43;;;1.57;;
47529;SDS011;33272;51.922;7.730;2022-07-29T06:32:40;4.80;;;1.50;;
47529;SDS011;33272;51.922;7.730;2022-07-29T06:35:08;5.27;;;2.20;;
47529;SDS011;33272;51.922;7.730;2022-07-29T06:37:35;3.60;;;1.40;;
47529;SDS011;33272;51.922;7.730;2022-07-29T06:40:04;4.90;;;2.10;;
47529;SDS011;33272;51.922;7.730;2022-07-29T06:42:50;4.27;;;1.77;;
47529;SDS011;33272;51.922;7.730;2022-07-29T06:45:17;4.57;;;1.60;;
47529;SDS011;33272;51.922;7.730;2022-07-29T06:47:44;3.80;;;2.43;;
47529;SDS011;33272;51.922;7.730;2022-07-29T06:50:11;9.00;;;2.07;;
47529;SDS011;33272;51.922;7.730;2022-07-29T06:52:39;5.53;;;1.70;;
47529;SDS011;33272;51.922;7.730;2022-07-29T06:55:08;3.73;;;1.60;;
47529;SDS011;33272;51.922;7.730;2022-07-29T06:57:35;5.57;;;1.87;;
47529;SDS011;33272;51.922;7.730;2022-07-29T07:00:03;4.87;;;1.80;;
47529;SDS011;33272;51.922;7.730;2022-07-29T07:02:31;3.80;;;1.87;;
47529;SDS011;33272;51.922;7.730;2022-07-29T07:04:58;2.73;;;1.60;;
47529;SDS011;33272;51.922;7.730;2022-07-29T07:07:25;4.43;;;1.80;;
47529;SDS011;33272;51.922;7.730;2022-07-29T07:09:52;4.40;;;1.70;;
47529;SDS011;33272;51.922;7.730;2022-07-29T07:12:21;3.57;;;1.60;;
47529;SDS011;33272;51.922;7.730;2022-07-29T07:14:48;5.17;;;1.80;;
47529;SDS011;33272;51.922;7.730;2022-07-29T07:17:15;4.80;;;1.80;;
47529;SDS011;33272;51.922;7.730;2022-07-29T07:19:42;3.30;;;1.80;;
47529;SDS011;33272;51.922;7.730;2022-07-29T07:22:10;3.10;;;1.87;;
47529;SDS011;33272;51.922;7.730;2022-07-29T07:24:37;3.50;;;1.77;;
47529;SDS011;33272;51.922;7.730;2022-07-29T07:27:04;2.23;;;1.50;;
47529;SDS011;33272;51.922;7.730;2022-07-29T07:29:32;3.87;;;1.57;;
47529;SDS011;33272;51.922;7.730;2022-07-29T07:31:59;3.63;;;1.87;;
47529;SDS011;33272;51.922;7.730;2022-07-29T07:34:26;4.63;;;1.80;;
47529;SDS011;33272;51.922;7.730;2022-07-29T07:36:55;2.80;;;1.60;;
47529;SDS011;33272;51.922;7.730;2022-07-29T07:39:22;5.63;;;1.87;;
47529;SDS011;33272;51.922;7.730;2022-07-29T07:41:49;3.93;;;2.37;;
47529;SDS011;33272;51.922;7.730;2022-07-29T07:44:16;3.97;;;1.77;;
47529;SDS011;33272;51.922;7.730;2022-07-29T07:46:45;5.27;;;1.87;;
47529;SDS011;33272;51.922;7.730;2022-07-29T07:49:12;5.27;;;1.70;;
47529;SDS011;33272;51.922;7.730;2022-07-29T07:51:39;4.67;;;1.77;;
47529;SDS011;33272;51.922;7.730;2022-07-29T07:54:06;4.80;;;2.03;;
47529;SDS011;33272;51.922;7.730;2022-07-29T07:56:33;5.70;;;1.57;;
47529;SDS011;33272;51.922;7.730;2022-07-29T07:59:00;2.60;;;1.70;;
47529;SDS011;33272;51.922;7.730;2022-07-29T08:01:27;6.83;;;4.80;;
47529;SDS011;33272;51.922;7.730;2022-07-29T08:03:56;15.50;;;12.10;;
47529;SDS011;33272;51.922;7.730;2022-07-29T08:06:23;5.83;;;4.20;;
47529;SDS011;33272;51.922;7.730;2022-07-29T08:08:50;3.83;;;2.70;;
47529;SDS011;33272;51.922;7.730;2022-07-29T08:11:17;3.37;;;2.37;;
47529;SDS011;33272;51.922;7.730;2022-07-29T08:13:46;3.00;;;2.27;;
47529;SDS011;33272;51.922;7.730;2022-07-29T08:16:13;3.70;;;2.47;;
47529;SDS011;33272;51.922;7.730;2022-07-29T08:18:41;4.13;;;2.10;;
47529;SDS011;33272;51.922;7.730;2022-07-29T08:21:12;4.03;;;1.90;;
47529;SDS011;33272;51.922;7.730;2022-07-29T08:23:40;2.97;;;2.00;;
47529;SDS011;33272;51.922;7.730;2022-07-29T08:26:14;4.63;;;1.60;;
47529;SDS011;33272;51.922;7.730;2022-07-29T08:28:42;3.53;;;1.90;;
47529;SDS011;33272;51.922;7.730;2022-07-29T08:31:11;2.83;;;1.60;;
47529;SDS011;33272;51.922;7.730;2022-07-29T08:33:38;4.53;;;1.57;;
47529;SDS011;33272;51.922;7.730;2022-07-29T08:36:06;5.00;;;1.73;;
47529;SDS011;33272;51.922;7.730;2022-07-29T08:38:34;3.57;;;1.87;;
47529;SDS011;33272;51.922;7.730;2022-07-29T08:41:01;3.93;;;1.80;;
47529;SDS011;33272;51.922;7.730;2022-07-29T08:43:29;3.23;;;1.60;;
47529;SDS011;33272;51.922;7.730;2022-07-29T08:45:57;2.53;;;1.50;;
47529;SDS011;33272;51.922;7.730;2022-07-29T08:48:24;4.30;;;2.00;;
47529;SDS011;33272;51.922;7.730;2022-07-29T08:50:52;4.37;;;1.80;;
47529;SDS011;33272;51.922;7.730;2022-07-29T08:53:24;2.17;;;1.40;;
47529;SDS011;33272;51.922;7.730;2022-07-29T08:55:55;6.47;;;1.80;;
47529;SDS011;33272;51.922;7.730;2022-07-29T08:58:23;3.53;;;1.40;;
47529;SDS011;33272;51.922;7.730;2022-07-29T09:00:52;5.30;;;1.70;;
47529;SDS011;33272;51.922;7.730;2022-07-29T09:03:22;3.83;;;1.40;;
47529;SDS011;33272;51.922;7.730;2022-07-29T09:05:50;3.83;;;1.50;;
47529;SDS011;33272;51.922;7.730;2022-07-29T09:08:18;5.13;;;1.70;;
47529;SDS011;33272;51.922;7.730;2022-07-29T09:10:46;2.73;;;1.60;;
47529;SDS011;33272;51.922;7.730;2022-07-29T09:13:15;4.23;;;1.70;;
47529;SDS011;33272;51.922;7.730;2022-07-29T09:15:42;4.07;;;1.80;;
47529;SDS011;33272;51.922;7.730;2022-07-29T09:18:10;6.23;;;2.20;;
47529;SDS011;33272;51.922;7.730;2022-07-29T09:20:37;3.90;;;1.70;;
47529;SDS011;33272;51.922;7.730;2022-07-29T09:23:33;3.47;;;1.80;;
47529;SDS011;33272;51.922;7.730;2022-07-29T09:26:01;2.93;;;2.07;;
47529;SDS011;33272;51.922;7.730;2022-07-29T09:28:33;5.70;;;2.03;;
47529;SDS011;33272;51.922;7.730;2022-07-29T09:31:07;3.90;;;2.07;;
47529;SDS011;33272;51.922;7.730;2022-07-29T09:33:34;3.23;;;1.50;;
47529;SDS011;33272;51.922;7.730;2022-07-29T09:36:04;3.53;;;1.80;;
47529;SDS011;33272;51.922;7.730;2022-07-29T09:38:34;2.40;;;1.33;;
47529;SDS011;33272;51.922;7.730;2022-07-29T09:41:03;4.57;;;1.60;;
47529;SDS011;33272;51.922;7.730;2022-07-29T09:43:34;2.70;;;1.60;;
47529;SDS011;33272;51.922;7.730;2022-07-29T09:46:10;4.07;;;1.63;;
47529;SDS011;33272;51.922;7.730;2022-07-29T09:48:38;2.90;;;1.50;;
47529;SDS011;33272;51.922;7.730;2022-07-29T09:51:05;4.43;;;1.77;;
47529;SDS011;33272;51.922;7.730;2022-07-29T09:53:44;2.67;;;1.67;;
47529;SDS011;33272;51.922;7.730;2022-07-29T09:56:11;3.17;;;1.80;;
47529;SDS011;33272;51.922;7.730;2022-07-29T09:58:40;4.37;;;1.90;;
47529;SDS011;33272;51.922;7.730;2022-07-29T10:01:07;4.23;;;1.50;;
47529;SDS011;33272;51.922;7.730;2022-07-29T10:03:36;5.50;;;2.00;;
47529;SDS011;33272;51.922;7.730;2022-07-29T10:06:17;5.70;;;1.60;;
47529;SDS011;33272;51.922;7.730;2022-07-29T10:08:44;4.73;;;1.50;;
47529;SDS011;33272;51.922;7.730;2022-07-29T10:11:13;3.93;;;1.73;;
47529;SDS011;33272;51.922;7.730;2022-07-29T10:13:44;2.13;;;1.60;;
47529;SDS011;33272;51.922;7.730;2022-07-29T10:16:13;1.97;;;1.50;;
47529;SDS011;33272;51.922;7.730;2022-07-29T10:18:42;2.97;;;1.57;;
47529;SDS011;33272;51.922;7.730;2022-07-29T10:21:11;4.90;;;2.17;;
47529;SDS011;33272;51.922;7.730;2022-07-29T10:23:39;3.60;;;1.50;;
47529;SDS011;33272;51.922;7.730;2022-07-29T10:26:07;2.30;;;1.50;;
47529;SDS011;33272;51.922;7.730;2022-07-29T10:28:36;4.30;;;1.60;;
47529;SDS011;33272;51.922;7.730;2022-07-29T10:31:05;3.63;;;1.70;;
47529;SDS011;33272;51.922;7.730;2022-07-29T10:33:39;3.90;;;1.50;;
47529;SDS011;33272;51.922;7.730;2022-07-29T10:36:21;3.40;;;1.70;;
47529;SDS011;33272;51.922;7.730;2022-07-29T10:39:02;6.67;;;2.07;;
47529;SDS011;33272;51.922;7.730;2022-07-29T10:41:47;3.73;;;2.23;;
47529;SDS011;33272;51.922;7.730;2022-07-29T10:44:32;4.23;;;1.53;;
47529;SDS011;33272;51.922;7.730;2022-07-29T10:47:00;4.30;;;1.57;;
47529;SDS011;33272;51.922;7.730;2022-07-29T10:49:27;4.90;;;1.40;;
47529;SDS011;33272;51.922;7.730;2022-07-29T10:51:56;2.17;;;1.37;;
47529;SDS011;33272;51.922;7.730;2022-07-29T10:54:41;3.13;;;1.87;;
47529;SDS011;33272;51.922;7.730;2022-07-29T10:57:16;3.90;;;2.20;;
47529;SDS011;33272;51.922;7.730;2022-07-29T10:59:47;3.73;;;1.83;;
47529;SDS011;33272;51.922;7.730;2022-07-29T11:05:16;6.47;;;2.37;;
47529;SDS011;33272;51.922;7.730;2022-07-29T11:10:46;5.00;;;1.70;;
47529;SDS011;33272;51.922;7.730;2022-07-29T11:16:13;5.03;;;2.37;;
47529;SDS011;33272;51.922;7.730;2022-07-29T11:21:47;3.60;;;2.30;;
47529;SDS011;33272;51.922;7.730;2022-07-29T11:24:16;7.77;;;2.50;;
47529;SDS011;33272;51.922;7.730;2022-07-29T11:29:40;3.83;;;2.60;;
47529;SDS011;33272;51.922;7.730;2022-07-29T11:32:17;5.63;;;2.47;;
47529;SDS011;33272;51.922;7.730;2022-07-29T11:34:47;6.17;;;2.53;;
47529;SDS011;33272;51.922;7.730;2022-07-29T11:37:16;5.07;;;2.70;;
47529;SDS011;33272;51.922;7.730;2022-07-29T11:42:42;3.10;;;2.27;;
47529;SDS011;33272;51.922;7.730;2022-07-29T11:45:12;5.30;;;2.40;;
47529;SDS011;33272;51.922;7.730;2022-07-29T11:47:52;4.73;;;2.50;;
47529;SDS011;33272;51.922;7.730;2022-07-29T11:50:28;4.93;;;2.37;;
47529;SDS011;33272;51.922;7.730;2022-07-29T11:53:01;3.97;;;2.03;;
47529;SDS011;33272;51.922;7.730;2022-07-29T11:55:37;4.67;;;2.50;;
47529;SDS011;33272;51.922;7.730;2022-07-29T11:58:05;6.30;;;2.73;;
47529;SDS011;33272;51.922;7.730;2022-07-29T12:00:33;6.37;;;2.33;;
47529;SDS011;33272;51.922;7.730;2022-07-29T12:03:03;3.90;;;2.73;;
47529;SDS011;33272;51.922;7.730;2022-07-29T12:05:39;3.97;;;2.40;;
47529;SDS011;33272;51.922;7.730;2022-07-29T12:08:09;4.30;;;2.00;;
47529;SDS011;33272;51.922;7.730;2022-07-29T12:10:44;3.37;;;2.50;;
47529;SDS011;33272;51.922;7.730;2022-07-29T12:13:12;6.83;;;2.80;;
47529;SDS011;33272;51.922;7.730;2022-07-29T12:15:41;5.33;;;2.47;;
47529;SDS011;33272;51.922;7.730;2022-07-29T12:18:17;4.37;;;2.40;;
47529;SDS011;33272;51.922;7.730;2022-07-29T12:20:47;5.47;;;2.37;;
47529;SDS011;33272;51.922;7.730;2022-07-29T12:23:22;5.13;;;2.33;;
47529;SDS011;33272;51.922;7.730;2022-07-29T12:25:49;7.10;;;2.97;;
47529;SDS011;33272;51.922;7.730;2022-07-29T12:28:16;5.83;;;2.83;;
47529;SDS011;33272;51.922;7.730;2022-07-29T12:30:44;5.17;;;2.83;;
47529;SDS011;33272;51.922;7.730;2022-07-29T12:33:17;4.20;;;2.60;;
47529;SDS011;33272;51.922;7.730;2022-07-29T12:35:49;4.43;;;2.90;;
47529;SDS011;33272;51.922;7.730;2022-07-29T12:38:19;6.67;;;2.80;;
47529;SDS011;33272;51.922;7.730;2022-07-29T12:40:47;8.73;;;2.80;;
47529;SDS011;33272;51.922;7.730;2022-07-29T12:43:16;7.30;;;2.87;;
47529;SDS011;33272;51.922;7.730;2022-07-29T12:45:46;7.53;;;3.67;;
47529;SDS011;33272;51.922;7.730;2022-07-29T12:48:14;4.90;;;2.67;;
47529;SDS011;33272;51.922;7.730;2022-07-29T12:50:56;4.63;;;2.87;;
47529;SDS011;33272;51.922;7.730;2022-07-29T12:53:26;4.07;;;2.73;;
47529;SDS011;33272;51.922;7.730;2022-07-29T12:55:54;3.93;;;2.90;;
47529;SDS011;33272;51.922;7.730;2022-07-29T12:58:30;4.13;;;2.57;;
47529;SDS011;33272;51.922;7.730;2022-07-29T13:01:08;4.53;;;2.43;;
47529;SDS011;33272;51.922;7.730;2022-07-29T13:03:48;4.87;;;3.07;;
47529;SDS011;33272;51.922;7.730;2022-07-29T13:06:29;6.13;;;2.93;;
47529;SDS011;33272;51.922;7.730;2022-07-29T13:09:03;6.37;;;2.93;;
47529;SDS011;33272;51.922;7.730;2022-07-29T13:11:36;6.73;;;3.00;;
47529;SDS011;33272;51.922;7.730;2022-07-29T13:14:06;5.37;;;3.07;;
47529;SDS011;33272;51.922;7.730;2022-07-29T13:16:34;5.07;;;2.50;;
47529;SDS011;33272;51.922;7.730;2022-07-29T13:19:07;6.27;;;2.50;;
47529;SDS011;33272;51.922;7.730;2022-07-29T13:21:38;4.27;;;3.20;;
47529;SDS011;33272;51.922;7.730;2022-07-29T13:24:06;6.37;;;2.77;;
47529;SDS011;33272;51.922;7.730;2022-07-29T13:26:34;4.73;;;3.17;;
47529;SDS011;33272;51.922;7.730;2022-07-29T13:29:05;5.90;;;3.20;;
47529;SDS011;33272;51.922;7.730;2022-07-29T13:31:32;7.27;;;5.33;;
47529;SDS011;33272;51.922;7.730;2022-07-29T13:33:59;7.00;;;5.10;;
47529;SDS011;33272;51.922;7.730;2022-07-29T13:36:26;5.63;;;3.57;;
47529;SDS011;33272;51.922;7.730;2022-07-29T13:38:55;7.47;;;4.40;;
47529;SDS011;33272;51.922;7.730;2022-07-29T13:41:22;8.73;;;3.63;;
47529;SDS011;33272;51.922;7.730;2022-07-29T13:43:49;5.13;;;3.17;;
47529;SDS011;33272;51.922;7.730;2022-07-29T13:46:16;4.90;;;3.43;;
47529;SDS011;33272;51.922;7.730;2022-07-29T13:48:43;7.27;;;3.27;;
47529;SDS011;33272;51.922;7.730;2022-07-29T13:51:09;7.30;;;3.97;;
47529;SDS011;33272;51.922;7.730;2022-07-29T13:53:36;6.87;;;3.73;;
47529;SDS011;33272;51.922;7.730;2022-07-29T13:56:05;8.00;;;3.90;;
47529;SDS011;33272;51.922;7.730;2022-07-29T13:58:32;5.13;;;3.40;;
47529;SDS011;33272;51.922;7.730;2022-07-29T14:00:59;7.07;;;3.47;;
47529;SDS011;33272;51.922;7.730;2022-07-29T14:03:26;5.33;;;3.23;;
47529;SDS011;33272;51.922;7.730;2022-07-29T14:05:54;4.97;;;2.87;;
47529;SDS011;33272;51.922;7.730;2022-07-29T14:08:21;5.03;;;3.10;;
47529;SDS011;33272;51.922;7.730;2022-07-29T14:10:48;5.70;;;3.00;;
47529;SDS011;33272;51.922;7.730;2022-07-29T14:13:17;5.03;;;3.23;;
47529;SDS011;33272;51.922;7.730;2022-07-29T14:15:44;4.87;;;3.13;;
47529;SDS011;33272;51.922;7.730;2022-07-29T14:18:11;5.47;;;2.97;;
47529;SDS011;33272;51.922;7.730;2022-07-29T14:20:38;5.10;;;2.80;;
47529;SDS011;33272;51.922;7.730;2022-07-29T14:23:05;6.37;;;2.80;;
47529;SDS011;33272;51.922;7.730;2022-07-29T14:25:33;5.23;;;3.47;;
47529;SDS011;33272;51.922;7.730;2022-07-29T14:28:00;4.07;;;2.90;;
47529;SDS011;33272;51.922;7.730;2022-07-29T14:30:28;2.70;;;2.50;;
47529;SDS011;33272;51.922;7.730;2022-07-29T14:32:55;4.43;;;2.63;;
47529;SDS011;33272;51.922;7.730;2022-07-29T14:35:22;5.10;;;2.77;;
47529;SDS011;33272;51.922;7.730;2022-07-29T14:37:50;6.20;;;2.63;;
47529;SDS011;33272;51.922;7.730;2022-07-29T14:40:17;5.80;;;2.60;;
47529;SDS011;33272;51.922;7.730;2022-07-29T14:42:44;4.83;;;2.93;;
47529;SDS011;33272;51.922;7.730;2022-07-29T14:45:11;7.87;;;2.63;;
47529;SDS011;33272;51.922;7.730;2022-07-29T14:47:39;2.40;;;1.97;;
47529;SDS011;33272;51.922;7.730;2022-07-29T14:50:07;4.00;;;2.00;;
47529;SDS011;33272;51.922;7.730;2022-07-29T14:52:34;5.13;;;2.83;;
47529;SDS011;33272;51.922;7.730;2022-07-29T14:55:02;4.73;;;2.50;;
47529;SDS011;33272;51.922;7.730;2022-07-29T14:57:30;4.97;;;2.20;;
47529;SDS011;33272;51.922;7.730;2022-07-29T14:59:57;4.80;;;2.40;;
47529;SDS011;33272;51.922;7.730;2022-07-29T15:02:24;3.90;;;2.63;;
47529;SDS011;33272;51.922;7.730;2022-07-29T15:04:52;3.67;;;2.17;;
47529;SDS011;33272;51.922;7.730;2022-07-29T15:07:19;5.50;;;2.33;;
47529;SDS011;33272;51.922;7.730;2022-07-29T15:09:46;4.00;;;2.00;;
47529;SDS011;33272;51.922;7.730;2022-07-29T15:12:13;6.30;;;2.10;;
47529;SDS011;33272;51.922;7.730;2022-07-29T15:14:41;6.10;;;2.17;;
47529;SDS011;33272;51.922;7.730;2022-07-29T15:17:08;6.10;;;2.90;;
47529;SDS011;33272;51.922;7.730;2022-07-29T15:19:35;3.87;;;2.40;;